Time;durP1;ratioP1;P1;durP2;ratioP2;P2;SDS_P1;SDS_P2;PMS_P1;PMS_P2;Temp;Humidity;BMP_temperature;BMP_pressure;BME280_temperature;BME280_humidity;BME280_pressure;Samples;Min_cycle;Max_cycle;Signal;HPM_P1;HPM_P2
2022/06/25 00:01:37;;;;;;;4.30;3.10;;;;;;;22.56;44.73;98577.80;232482;1223;139436;-62
2022/06/25 00:06:40;;;;;;;8.00;3.10;;;;;;;22.51;44.87;98585.62;232388;1224;139027;-63
2022/06/25 00:17:05;;;;;;;7.40;3.30;;;;;;;22.42;44.95;98594.85;232942;1222;139793;-57
2022/06/25 00:22:08;;;;;;;5.00;3.00;;;;;;;22.35;45.19;98590.72;232594;1223;138689;-61
2022/06/25 00:27:11;;;;;;;4.50;3.00;;;;;;;22.28;45.28;98582.91;232818;1223;139079;-61
2022/06/25 00:32:14;;;;;;;3.90;3.00;;;;;;;22.26;45.42;98582.26;232647;1223;138733;-61
2022/06/25 00:37:17;;;;;;;5.30;3.20;;;;;;;22.21;45.54;98579.66;232613;1223;138696;-60
2022/06/25 00:42:21;;;;;;;9.50;3.50;;;;;;;22.17;45.64;98582.02;232327;1223;138969;-59
2022/06/25 00:47:24;;;;;;;8.60;3.20;;;;;;;22.16;45.70;98576.70;232629;1223;138842;-60
2022/06/25 00:52:33;;;;;;;5.00;3.50;;;;;;;22.13;45.77;98579.73;232656;1223;139230;-61
2022/06/25 00:57:42;;;;;;;7.70;3.00;;;;;;;22.06;45.93;98576.61;233044;1222;138850;-59
2022/06/25 01:02:48;;;;;;;4.80;3.20;;;;;;;22.02;46.00;98580.05;232370;1223;138761;-59
2022/06/25 01:07:55;;;;;;;4.10;3.20;;;;;;;21.96;46.12;98578.16;232171;1224;139157;-60
2022/06/25 01:13:02;;;;;;;8.40;3.50;;;;;;;21.91;46.24;98576.77;232287;1224;138546;-62
2022/06/25 01:18:11;;;;;;;5.00;3.40;;;;;;;21.88;46.35;98571.71;232166;1222;138849;-58
2022/06/25 01:23:35;;;;;;;4.10;3.10;;;;;;;21.85;46.40;98573.86;231941;1222;138413;-62
2022/06/25 01:28:54;;;;;;;5.80;3.60;;;;;;;21.81;46.41;98575.26;231965;1224;140057;-62
2022/06/25 01:33:59;;;;;;;4.90;3.10;;;;;;;21.75;46.63;98574.70;232118;1224;139214;-67
2022/06/25 01:39:12;;;;;;;8.00;3.60;;;;;;;21.65;46.63;98566.95;232223;1223;139393;-63
2022/06/25 01:44:25;;;;;;;4.80;3.30;;;;;;;21.63;46.74;98571.35;231966;1224;139100;-65
2022/06/25 01:49:33;;;;;;;8.80;3.40;;;;;;;21.59;46.91;98575.05;231526;1222;139022;-62
2022/06/25 01:54:39;;;;;;;7.60;3.40;;;;;;;21.55;46.97;98579.75;232647;1222;140005;-64
2022/06/25 01:59:46;;;;;;;4.90;3.30;;;;;;;21.48;47.10;98580.73;232393;1223;138748;-60
2022/06/25 02:04:56;;;;;;;5.70;3.60;;;;;;;21.41;47.28;98583.25;232412;1223;139434;-60
2022/06/25 02:10:05;;;;;;;6.00;3.40;;;;;;;21.35;47.31;98588.52;232761;1223;138834;-60
2022/06/25 02:15:09;;;;;;;6.10;3.10;;;;;;;21.31;47.56;98588.58;232734;1223;151005;-59
2022/06/25 02:20:12;;;;;;;5.70;3.60;;;;;;;21.25;47.65;98589.52;233003;1223;141644;-60
2022/06/25 02:25:15;;;;;;;5.90;3.50;;;;;;;21.19;47.89;98595.08;232907;1223;139638;-59
2022/06/25 02:30:18;;;;;;;7.60;3.50;;;;;;;21.11;47.95;98589.68;232698;1223;139030;-58
2022/06/25 02:35:21;;;;;;;5.70;3.80;;;;;;;21.04;47.95;98603.30;232478;1223;139032;-60
2022/06/25 02:40:24;;;;;;;5.00;3.60;;;;;;;20.96;48.04;98604.88;232993;1223;139183;-59
2022/06/25 02:45:28;;;;;;;5.80;3.60;;;;;;;20.92;48.33;98600.92;232538;1223;138784;-61
2022/06/25 02:50:32;;;;;;;4.20;3.50;;;;;;;20.89;48.37;98602.41;232446;1223;138859;-60
2022/06/25 03:00:57;;;;;;;5.50;3.70;;;;;;;20.81;48.78;98599.21;232452;1223;139408;-62
2022/06/25 03:06:01;;;;;;;8.70;4.10;;;;;;;20.78;48.93;98603.92;232727;1222;139528;-60
2022/06/25 03:11:04;;;;;;;6.00;3.40;;;;;;;20.72;49.10;98597.20;232398;1224;138888;-62
2022/06/25 03:16:08;;;;;;;6.50;3.60;;;;;;;20.67;49.25;98599.68;232657;1223;138962;-61
2022/06/25 03:21:12;;;;;;;8.10;3.60;;;;;;;20.65;49.55;98606.23;232597;1223;138544;-60
2022/06/25 03:26:16;;;;;;;6.30;3.40;;;;;;;20.65;49.65;98613.09;232594;1222;139524;-61
2022/06/25 03:31:21;;;;;;;4.30;3.70;;;;;;;20.63;49.73;98610.39;232476;1224;139118;-63
2022/06/25 03:36:24;;;;;;;5.10;3.70;;;;;;;20.67;49.89;98612.48;232572;1222;138977;-60
2022/06/25 03:41:33;;;;;;;6.20;3.40;;;;;;;20.74;50.02;98618.73;232490;1223;139178;-57
2022/06/25 03:46:46;;;;;;;8.60;3.90;;;;;;;20.83;50.01;98629.88;232451;1224;140497;-59
2022/06/25 03:51:49;;;;;;;7.20;3.80;;;;;;;20.91;50.02;98624.23;232542;1224;139076;-56
2022/06/25 03:56:52;;;;;;;6.00;3.70;;;;;;;20.99;49.88;98625.33;232540;1223;138688;-59
2022/06/25 04:01:58;;;;;;;5.50;3.20;;;;;;;21.07;50.00;98627.48;232701;1222;139077;-58
2022/06/25 04:07:09;;;;;;;4.90;3.60;;;;;;;21.18;49.98;98638.02;232712;1223;138912;-59
2022/06/25 04:12:13;;;;;;;10.10;3.80;;;;;;;21.26;49.96;98641.60;232766;1223;139429;-57
2022/06/25 04:17:16;;;;;;;8.00;3.90;;;;;;;21.34;50.02;98647.27;232689;1223;139767;-60
2022/06/25 04:22:19;;;;;;;5.40;3.60;;;;;;;21.43;49.97;98644.00;233090;1223;139315;-59
2022/06/25 04:32:44;;;;;;;7.70;3.60;;;;;;;21.69;49.88;98647.09;232485;1222;138870;-59
2022/06/25 04:37:51;;;;;;;5.10;3.50;;;;;;;21.79;49.71;98643.60;232584;1223;138838;-59
2022/06/25 04:42:55;;;;;;;4.70;3.40;;;;;;;21.91;49.65;98641.92;232480;1223;140575;-60
2022/06/25 04:48:02;;;;;;;7.40;3.60;;;;;;;22.00;49.60;98639.45;232532;1224;139575;-63
2022/06/25 04:53:54;;;;;;;5.00;3.80;;;;;;;22.11;49.51;98636.83;232589;1223;139040;-63
2022/06/25 04:59:00;;;;;;;5.20;3.70;;;;;;;22.21;49.31;98638.14;232637;1223;139771;-58
2022/06/25 05:04:21;;;;;;;6.80;3.10;;;;;;;22.30;49.26;98634.90;232790;1224;139074;-59
2022/06/25 05:09:26;;;;;;;6.10;3.50;;;;;;;22.43;49.27;98642.92;232328;1224;138498;-60
2022/06/25 05:14:29;;;;;;;4.90;3.80;;;;;;;22.51;49.21;98646.58;232540;1224;140037;-57
2022/06/25 05:19:32;;;;;;;7.50;3.50;;;;;;;22.57;49.26;98644.59;232317;1224;139619;-59
2022/06/25 05:24:35;;;;;;;4.60;3.30;;;;;;;22.61;49.14;98644.70;232538;1224;138928;-61
2022/06/25 05:29:38;;;;;;;6.90;3.30;;;;;;;22.67;49.23;98647.73;232480;1224;138864;-59
2022/06/25 05:34:42;;;;;;;7.30;3.60;;;;;;;22.72;49.31;98644.88;232564;1224;139138;-59
2022/06/25 05:39:45;;;;;;;8.50;4.40;;;;;;;22.81;49.03;98653.86;232627;1224;140103;-59
2022/06/25 05:44:48;;;;;;;63.50;48.60;;;;;;;22.85;49.00;98656.36;232741;1223;139902;-57
2022/06/25 05:49:51;;;;;;;20.80;14.60;;;;;;;22.89;48.58;98656.86;232463;1224;139565;-59
2022/06/25 05:54:54;;;;;;;11.40;5.90;;;;;;;22.89;48.79;98649.98;232537;1224;139746;-60
2022/06/25 05:59:57;;;;;;;70.30;54.90;;;;;;;23.00;48.76;98654.16;232542;1222;139677;-57
2022/06/25 06:05:00;;;;;;;13.60;9.50;;;;;;;23.08;48.85;98652.23;232713;1221;139105;-59
2022/06/25 06:10:04;;;;;;;9.90;6.00;;;;;;;23.23;48.98;98650.67;232804;1223;139698;-59
2022/06/25 06:15:08;;;;;;;12.50;3.70;;;;;;;23.31;49.11;98651.80;232347;1223;138718;-58
2022/06/25 06:20:11;;;;;;;8.90;6.60;;;;;;;23.46;48.96;98645.36;232487;1224;139366;-56
2022/06/25 06:25:14;;;;;;;123.00;98.40;;;;;;;23.59;48.96;98640.99;232473;1224;139328;-59
2022/06/25 06:30:17;;;;;;;14.90;8.20;;;;;;;23.72;48.77;98641.65;232630;1223;139775;-59
2022/06/25 06:35:20;;;;;;;10.50;8.00;;;;;;;23.85;48.72;98639.95;232764;1223;139270;-58
2022/06/25 06:40:23;;;;;;;8.00;5.20;;;;;;;23.95;48.49;98639.90;232786;1223;139157;-57
2022/06/25 06:45:26;;;;;;;84.60;74.20;;;;;;;24.02;48.32;98640.27;232628;1224;139044;-57
2022/06/25 06:50:30;;;;;;;10.00;8.10;;;;;;;24.13;48.35;98640.91;232618;1222;139769;-58
2022/06/25 06:55:33;;;;;;;9.30;4.60;;;;;;;24.18;48.27;98640.39;232735;1223;140702;-58
2022/06/25 07:00:36;;;;;;;9.50;5.10;;;;;;;24.31;48.24;98649.15;232630;1223;138982;-58
2022/06/25 07:05:39;;;;;;;5.40;3.80;;;;;;;24.40;48.14;98647.48;232460;1224;138613;-59
2022/06/25 07:10:55;;;;;;;4.20;3.30;;;;;;;24.49;48.04;98654.80;232592;1223;139407;-58
2022/06/25 07:15:58;;;;;;;41.00;32.70;;;;;;;24.57;47.87;98652.80;232830;1223;139408;-59
2022/06/25 07:21:01;;;;;;;14.80;10.70;;;;;;;24.63;47.82;98648.03;232592;1222;139853;-58
2022/06/25 07:26:04;;;;;;;9.30;4.30;;;;;;;24.75;47.55;98647.23;232457;1223;140073;-58
2022/06/25 07:31:08;;;;;;;11.10;4.20;;;;;;;24.85;47.41;98653.89;232631;1223;139450;-57
2022/06/25 07:36:11;;;;;;;8.70;4.50;;;;;;;24.96;47.28;98656.02;232768;1222;139350;-57
2022/06/25 07:41:14;;;;;;;18.90;11.50;;;;;;;25.03;47.10;98650.69;232673;1222;139109;-61
2022/06/25 07:46:18;;;;;;;11.90;6.40;;;;;;;25.15;47.19;98650.48;232686;1223;139463;-60
2022/06/25 07:56:42;;;;;;;12.10;4.80;;;;;;;25.38;46.16;98651.13;232385;1223;139654;-58
2022/06/25 08:01:46;;;;;;;10.70;4.60;;;;;;;25.49;45.95;98647.60;232648;1223;139527;-59
2022/06/25 08:06:50;;;;;;;7.50;4.60;;;;;;;25.63;45.49;98649.06;232633;1223;139773;-59
2022/06/25 08:11:53;;;;;;;6.30;3.50;;;;;;;25.69;45.27;98647.59;232600;1223;139237;-58
2022/06/25 08:16:56;;;;;;;6.60;2.70;;;;;;;25.75;44.94;98646.30;232674;1223;138896;-61
2022/06/25 08:21:59;;;;;;;4.40;2.70;;;;;;;25.82;44.47;98644.40;232724;1223;138937;-56
2022/06/25 08:27:02;;;;;;;18.10;11.20;;;;;;;25.94;43.74;98647.58;232780;1224;138907;-58
2022/06/25 08:32:06;;;;;;;5.40;3.60;;;;;;;26.09;43.51;98655.48;232661;1222;140236;-58
2022/06/25 08:37:09;;;;;;;11.00;3.10;;;;;;;26.22;43.51;98651.10;232623;1223;139361;-55
2022/06/25 08:42:12;;;;;;;12.00;3.10;;;;;;;26.35;42.98;98649.08;232597;1223;139757;-58
2022/06/25 08:47:17;;;;;;;6.70;3.10;;;;;;;26.46;42.91;98646.68;232530;1223;140006;-57
2022/06/25 08:52:21;;;;;;;12.20;3.10;;;;;;;26.42;42.40;98644.86;232654;1222;138942;-59
2022/06/25 08:57:24;;;;;;;9.30;2.60;;;;;;;26.22;42.43;98639.89;232628;1224;140186;-58
2022/06/25 09:02:27;;;;;;;7.40;2.50;;;;;;;26.30;42.61;98641.27;232603;1223;140944;-56
2022/06/25 09:07:30;;;;;;;8.70;2.60;;;;;;;26.44;42.29;98637.47;232525;1224;138657;-56
2022/06/25 13:05:28;;;;;;;3.40;2.30;;;;;;;26.24;44.85;98567.05;230204;1233;634933;-56
2022/06/25 13:10:32;;;;;;;13.20;3.40;;;;;;;26.88;43.35;98555.70;233088;1222;138606;-54
2022/06/25 13:15:35;;;;;;;4.90;2.10;;;;;;;27.73;42.20;98556.26;232701;1222;138366;-56
2022/06/25 13:20:38;;;;;;;6.20;2.60;;;;;;;28.26;41.08;98555.27;232852;1223;138741;-54
2022/06/25 13:25:42;;;;;;;5.80;2.20;;;;;;;28.64;39.84;98555.67;232783;1224;138724;-56
2022/06/25 13:30:46;;;;;;;3.20;2.50;;;;;;;28.77;39.37;98553.05;232565;1224;139685;-56
2022/06/25 13:35:59;;;;;;;5.30;2.40;;;;;;;29.01;38.94;98556.51;232831;1223;137593;-55
2022/06/25 13:41:02;;;;;;;3.10;1.90;;;;;;;29.20;38.68;98555.11;233211;1222;138765;-55
2022/06/25 13:46:05;;;;;;;10.00;2.90;;;;;;;29.41;38.28;98556.60;232980;1223;138339;-54
2022/06/25 13:51:08;;;;;;;4.40;2.60;;;;;;;29.66;38.09;98557.63;232815;1223;139900;-57
2022/06/25 13:56:12;;;;;;;2.90;2.40;;;;;;;29.71;37.55;98554.91;232844;1222;139295;-56
2022/06/25 14:01:16;;;;;;;6.70;2.90;;;;;;;29.60;37.19;98549.59;232867;1222;138324;-58
2022/06/25 14:06:19;;;;;;;;;;;;;;;29.43;36.88;98553.33;232883;1222;138102;-59
2022/06/25 14:11:23;;;;;;;5.10;2.20;;;;;;;29.29;37.03;98549.55;233117;1224;125582;-55
2022/06/25 14:16:26;;;;;;;3.40;2.50;;;;;;;29.21;36.87;98549.43;232620;1224;138718;-57
2022/06/25 14:21:31;;;;;;;4.60;2.50;;;;;;;29.16;36.71;98544.55;232403;1223;138888;-56
2022/06/25 14:26:34;;;;;;;3.80;2.30;;;;;;;29.18;36.70;98546.42;232805;1222;139142;-55
2022/06/25 14:31:38;;;;;;;7.00;3.10;;;;;;;29.22;36.70;98541.88;232994;1222;139887;-57
2022/06/25 14:42:21;;;;;;;4.70;2.20;;;;;;;29.36;36.57;98541.80;232851;1223;138096;-57
2022/06/25 14:47:24;;;;;;;2.40;2.20;;;;;;;29.45;36.51;98544.77;232690;1223;138185;-58
2022/06/25 14:52:27;;;;;;;4.20;2.30;;;;;;;29.53;36.38;98539.79;232743;1223;138091;-56
2022/06/25 14:57:30;;;;;;;2.40;2.20;;;;;;;29.64;36.22;98538.16;232855;1223;138221;-55
2022/06/25 15:02:33;;;;;;;3.20;2.20;;;;;;;29.61;35.72;98537.96;233380;1220;139025;-56
2022/06/25 15:07:36;;;;;;;2.40;2.10;;;;;;;29.62;35.72;98542.84;233377;1219;137909;-56
2022/06/25 15:12:40;;;;;;;3.50;2.50;;;;;;;29.60;35.43;98538.80;233498;1219;138461;-56
2022/06/25 15:17:43;;;;;;;3.80;2.10;;;;;;;29.56;35.59;98539.11;233251;1218;138600;-56
2022/06/25 15:22:46;;;;;;;2.70;2.10;;;;;;;29.53;35.28;98543.54;233411;1219;138603;-55
2022/06/25 15:27:49;;;;;;;5.10;2.50;;;;;;;29.49;35.19;98543.17;233371;1219;139678;-56
2022/06/25 15:32:52;;;;;;;4.60;2.10;;;;;;;29.44;35.19;98538.80;233368;1219;137944;-56
2022/06/25 15:37:55;;;;;;;4.70;2.40;;;;;;;29.40;34.98;98541.66;233297;1220;139342;-57
2022/06/25 15:43:01;;;;;;;5.20;2.60;;;;;;;29.39;35.16;98537.09;233392;1219;138375;-57
2022/06/25 15:48:04;;;;;;;5.80;2.40;;;;;;;29.32;35.51;98529.90;233347;1219;139221;-56
2022/06/25 15:53:08;;;;;;;7.50;2.90;;;;;;;29.24;35.54;98534.17;233373;1220;159158;-54
2022/06/25 15:58:11;;;;;;;6.30;2.50;;;;;;;29.16;35.34;98533.42;233329;1219;139476;-55
2022/06/25 16:03:14;;;;;;;5.00;3.10;;;;;;;29.12;35.56;98535.44;233158;1220;139879;-57
2022/06/25 16:08:17;;;;;;;5.20;3.10;;;;;;;29.10;35.64;98536.70;233299;1219;139572;-56
2022/06/25 16:13:21;;;;;;;7.10;2.50;;;;;;;29.06;35.55;98539.10;233560;1217;138160;-55
2022/06/25 16:18:24;;;;;;;5.20;2.50;;;;;;;29.05;35.57;98546.78;233474;1217;138747;-53
2022/06/25 16:23:27;;;;;;;4.40;2.90;;;;;;;28.99;35.65;98551.25;233515;1217;138692;-57
2022/06/25 16:28:30;;;;;;;5.50;2.50;;;;;;;28.96;35.66;98552.05;233361;1217;139207;-55
2022/06/25 16:33:35;;;;;;;3.60;2.70;;;;;;;28.91;35.72;98544.70;233532;1217;140814;-55
2022/06/25 16:38:38;;;;;;;4.00;2.90;;;;;;;28.93;35.74;98552.51;233466;1217;139682;-56
2022/06/25 16:49:20;;;;;;;11.30;4.70;;;;;;;28.86;35.76;98549.66;233470;1217;138808;-53
2022/06/25 16:54:26;;;;;;;5.10;3.70;;;;;;;28.83;35.76;98551.98;233517;1217;139437;-55
2022/06/25 16:59:30;;;;;;;8.80;4.30;;;;;;;28.82;35.90;98552.15;233538;1217;138981;-57
2022/06/25 17:04:33;;;;;;;10.50;5.10;;;;;;;28.80;36.13;98550.91;233634;1217;138209;-56
2022/06/25 17:09:36;;;;;;;8.30;4.20;;;;;;;28.76;36.03;98551.38;233427;1217;138831;-56
2022/06/25 17:14:39;;;;;;;6.40;3.40;;;;;;;28.72;36.20;98558.64;233467;1217;137977;-56
2022/06/25 17:19:42;;;;;;;5.80;3.60;;;;;;;28.68;36.54;98560.65;233542;1217;138829;-56
2022/06/25 17:24:45;;;;;;;7.30;3.60;;;;;;;28.64;36.32;98564.49;233626;1217;139128;-56
2022/06/25 17:29:48;;;;;;;7.50;4.20;;;;;;;28.61;36.36;98564.34;233579;1216;138666;-55
2022/06/25 17:34:53;;;;;;;7.30;3.50;;;;;;;28.54;36.62;98561.86;233684;1217;138236;-54
2022/06/25 17:39:56;;;;;;;10.40;4.10;;;;;;;28.49;36.66;98566.00;233546;1217;138910;-57
2022/06/25 17:44:59;;;;;;;7.20;3.20;;;;;;;28.43;36.59;98567.67;233611;1217;138333;-57
2022/06/25 17:50:04;;;;;;;7.80;3.00;;;;;;;28.40;36.64;98573.13;233536;1217;139207;-52
2022/06/25 17:55:09;;;;;;;5.50;3.80;;;;;;;28.34;36.70;98574.74;233675;1217;139469;-56
2022/06/25 18:00:15;;;;;;;6.50;3.60;;;;;;;28.29;36.84;98579.13;233535;1217;140032;-56
2022/06/25 18:05:19;;;;;;;9.40;4.10;;;;;;;28.22;37.03;98579.16;233521;1217;139590;-55
2022/06/25 18:10:27;;;;;;;8.00;3.90;;;;;;;28.17;37.20;98583.20;233668;1216;138702;-56
2022/06/25 18:15:30;;;;;;;6.10;3.70;;;;;;;28.11;37.34;98587.65;233491;1217;138155;-56
2022/06/25 18:20:34;;;;;;;6.60;3.50;;;;;;;28.02;37.59;98587.74;233480;1217;138667;-55
2022/06/25 18:25:37;;;;;;;15.10;12.60;;;;;;;27.89;37.76;98601.56;233551;1217;139103;-55
2022/06/25 18:30:40;;;;;;;21.70;14.60;;;;;;;27.77;38.20;98613.06;233578;1217;138541;-57
2022/06/25 18:35:43;;;;;;;60.20;51.80;;;;;;;27.64;38.59;98613.76;233518;1217;138657;-56
2022/06/25 18:40:46;;;;;;;63.10;53.00;;;;;;;27.55;38.84;98629.13;233762;1217;138443;-57
2022/06/25 18:45:49;;;;;;;9.10;6.80;;;;;;;27.54;39.01;98631.54;233527;1215;138877;-57
2022/06/25 18:50:52;;;;;;;9.90;4.10;;;;;;;27.56;38.98;98641.63;233471;1217;138781;-56
2022/06/25 18:55:56;;;;;;;6.10;3.70;;;;;;;27.54;39.14;98649.83;233597;1217;138530;-55
2022/06/25 19:01:01;;;;;;;5.70;3.30;;;;;;;27.53;39.23;98659.80;233587;1217;138242;-56
2022/06/25 19:06:04;;;;;;;5.50;3.30;;;;;;;27.52;39.38;98670.44;233490;1217;138309;-55
2022/06/25 19:11:07;;;;;;;5.70;3.30;;;;;;;27.51;39.43;98676.05;233505;1217;138724;-54
2022/06/25 19:16:10;;;;;;;6.90;3.00;;;;;;;27.48;39.32;98682.14;233528;1217;139028;-56
2022/06/25 19:21:13;;;;;;;12.80;3.30;;;;;;;27.44;39.37;98684.59;233558;1217;139954;-55
2022/06/25 19:26:16;;;;;;;6.60;3.30;;;;;;;27.38;39.60;98689.38;233567;1217;138780;-57
2022/06/25 19:31:19;;;;;;;51.40;45.60;;;;;;;27.32;39.56;98698.80;233525;1216;139264;-55
2022/06/25 19:36:24;;;;;;;8.10;6.10;;;;;;;27.24;39.82;98701.13;233646;1217;139298;-55
2022/06/25 19:41:27;;;;;;;;;;;;;;;27.19;39.81;98701.07;233577;1217;138447;-57
2022/06/25 19:46:31;;;;;;;8.70;6.30;;;;;;;27.07;39.85;98704.92;233737;1216;125424;-56
2022/06/25 19:51:34;;;;;;;11.60;9.10;;;;;;;26.97;39.99;98711.84;233484;1217;139967;-55
2022/06/25 19:56:37;;;;;;;64.50;52.00;;;;;;;26.84;40.44;98708.88;233454;1217;139799;-56
2022/06/25 20:01:40;;;;;;;8.30;5.50;;;;;;;26.74;40.63;98711.64;233560;1217;138641;-56
2022/06/25 20:06:45;;;;;;;7.70;4.90;;;;;;;26.66;40.85;98716.80;233441;1217;138506;-54
2022/06/25 20:11:49;;;;;;;;;;;;;;;26.56;40.95;98719.84;233563;1217;139381;-55
2022/06/25 20:16:52;;;;;;;103.60;93.00;;;;;;;26.46;41.14;98721.77;233789;1217;124232;-56
2022/06/25 20:21:56;;;;;;;8.90;6.40;;;;;;;26.36;41.23;98720.49;233501;1217;139079;-55
2022/06/25 20:26:59;;;;;;;9.80;6.20;;;;;;;26.30;41.29;98716.58;233500;1217;137991;-55
2022/06/25 20:32:02;;;;;;;12.50;5.00;;;;;;;26.27;41.66;98721.27;233467;1217;140046;-56
2022/06/25 20:37:05;;;;;;;7.80;4.60;;;;;;;26.19;41.83;98719.48;233470;1217;138590;-55
2022/06/25 20:42:12;;;;;;;5.20;4.00;;;;;;;26.10;41.76;98719.27;233427;1217;138292;-56
2022/06/25 20:47:15;;;;;;;37.90;33.80;;;;;;;26.01;41.91;98720.81;233502;1217;138974;-56
2022/06/25 20:52:18;;;;;;;8.80;6.90;;;;;;;25.93;41.95;98726.55;233599;1217;138842;-56
2022/06/25 20:57:22;;;;;;;233.20;209.30;;;;;;;25.85;41.99;98724.91;233539;1217;138878;-55
2022/06/25 21:02:26;;;;;;;37.20;33.10;;;;;;;25.80;42.22;98723.41;233474;1217;138329;-55
2022/06/25 21:12:58;;;;;;;9.10;7.70;;;;;;;25.69;42.24;98720.97;233482;1217;138801;-54
2022/06/25 21:18:02;;;;;;;9.50;6.10;;;;;;;25.58;42.36;98716.21;233675;1216;138268;-54
2022/06/25 21:23:11;;;;;;;8.00;4.30;;;;;;;25.49;42.49;98716.64;233656;1215;138556;-57
2022/06/25 21:28:14;;;;;;;6.00;4.00;;;;;;;25.41;42.44;98714.52;233655;1217;138607;-56
2022/06/25 21:33:17;;;;;;;24.80;19.60;;;;;;;25.36;42.50;98714.82;233431;1217;138667;-56
2022/06/25 21:38:20;;;;;;;87.00;77.40;;;;;;;25.28;42.51;98718.70;233547;1217;138828;-57
2022/06/25 21:43:23;;;;;;;11.60;5.80;;;;;;;25.21;42.42;98717.32;233545;1215;139341;-55
2022/06/25 21:48:26;;;;;;;9.00;3.80;;;;;;;25.16;42.42;98719.45;233619;1217;140050;-55
2022/06/25 21:53:29;;;;;;;7.40;3.60;;;;;;;25.12;42.41;98728.16;233340;1217;138608;-56
2022/06/25 21:58:32;;;;;;;9.40;3.50;;;;;;;25.04;42.53;98725.35;233494;1218;138898;-57
2022/06/25 22:03:35;;;;;;;5.80;3.40;;;;;;;25.00;42.33;98736.20;233430;1218;138516;-55
2022/06/25 22:08:38;;;;;;;6.80;3.70;;;;;;;24.91;42.35;98743.23;233560;1217;138869;-55
2022/06/25 22:13:42;;;;;;;7.00;3.70;;;;;;;24.84;42.55;98746.63;233529;1217;138202;-55
2022/06/25 22:18:45;;;;;;;5.60;3.60;;;;;;;24.77;42.53;98738.98;233456;1217;139805;-56
2022/06/25 22:23:48;;;;;;;6.70;3.40;;;;;;;24.76;42.53;98750.50;233502;1217;139456;-55
2022/06/25 22:28:51;;;;;;;6.70;3.60;;;;;;;24.69;42.58;98752.30;233647;1217;138315;-58
2022/06/25 22:33:54;;;;;;;5.20;3.50;;;;;;;24.66;42.75;98757.21;233550;1217;138335;-58
2022/06/25 22:38:57;;;;;;;84.30;75.10;;;;;;;24.59;42.72;98766.94;233591;1217;138148;-55
2022/06/25 22:44:00;;;;;;;42.90;36.90;;;;;;;24.51;42.77;98773.11;233481;1217;138485;-56
2022/06/25 22:49:03;;;;;;;8.20;5.60;;;;;;;24.43;42.79;98768.77;233506;1217;138714;-55
2022/06/25 22:54:07;;;;;;;159.90;142.70;;;;;;;24.35;42.81;98779.34;233480;1217;138640;-56
2022/06/25 22:59:09;;;;;;;8.20;5.30;;;;;;;24.28;42.83;98781.88;233592;1217;138571;-54
2022/06/25 23:04:13;;;;;;;5.90;4.10;;;;;;;24.23;43.13;98781.73;233760;1217;139174;-56
2022/06/25 23:09:16;;;;;;;7.20;3.70;;;;;;;24.17;43.07;98785.74;233518;1217;138083;-57
2022/06/25 23:14:39;;;;;;;7.20;3.50;;;;;;;24.03;43.08;98790.74;233472;1217;138390;-60
2022/06/25 23:19:42;;;;;;;6.80;3.50;;;;;;;23.87;43.21;98789.46;233608;1217;138952;-60
2022/06/25 23:24:45;;;;;;;5.70;3.80;;;;;;;23.77;43.32;98794.97;233705;1217;138765;-60
2022/06/25 23:29:48;;;;;;;5.50;4.00;;;;;;;23.68;43.42;98791.76;233489;1217;138434;-57
2022/06/25 23:34:51;;;;;;;6.70;4.50;;;;;;;23.64;43.40;98801.32;233517;1217;141028;-57
2022/06/25 23:39:54;;;;;;;10.50;4.10;;;;;;;23.54;43.45;98797.04;233583;1217;138397;-55
2022/06/25 23:44:59;;;;;;;8.20;4.00;;;;;;;23.46;43.62;98795.67;233575;1217;138565;-57
2022/06/25 23:50:02;;;;;;;;;;;;;;;23.36;43.78;98797.89;233704;1216;139816;-59
2022/06/25 23:55:05;;;;;;;5.60;3.70;;;;;;;23.24;43.82;98805.88;233662;1217;124766;-59
